createdAt,value
2023-04-26T00:01:09.890Z,3.50
2023-04-26T00:06:14.779Z,3.03
2023-04-26T00:11:19.456Z,3.20
2023-04-26T00:16:22.778Z,3.92
2023-04-26T00:21:26.823Z,4.30
2023-04-26T00:26:31.475Z,3.40
2023-04-26T00:31:35.360Z,4.00
2023-04-26T00:36:38.685Z,3.75
2023-04-26T00:41:43.368Z,3.80
2023-04-26T00:46:47.495Z,3.45
2023-04-26T00:51:52.779Z,3.58
2023-04-26T00:56:57.516Z,3.35
2023-04-26T01:02:00.946Z,3.10
2023-04-26T01:07:04.451Z,3.20
2023-04-26T01:12:12.485Z,4.07
2023-04-26T01:17:15.828Z,3.72
2023-04-26T01:22:19.752Z,3.33
2023-04-26T01:27:24.564Z,3.00
2023-04-26T01:32:28.105Z,3.67
2023-04-26T01:37:34.614Z,3.70
2023-04-26T01:42:39.307Z,3.80
2023-04-26T01:47:42.611Z,3.90
2023-04-26T01:52:46.028Z,3.93
2023-04-26T01:57:50.716Z,3.75
2023-04-26T02:02:56.669Z,4.13
2023-04-26T02:08:00.057Z,3.90
2023-04-26T02:13:04.714Z,3.70
2023-04-26T02:18:09.697Z,4.00
2023-04-26T02:23:13.425Z,4.20
2023-04-26T02:28:21.076Z,4.30
2023-04-26T02:33:24.487Z,4.40
2023-04-26T02:38:28.419Z,4.28
2023-04-26T02:43:35.376Z,3.80
2023-04-26T02:48:38.656Z,3.73
2023-04-26T02:53:41.988Z,4.15
2023-04-26T02:58:47.228Z,4.03
2023-04-26T03:03:51.113Z,4.30
2023-04-26T03:08:54.567Z,4.38
2023-04-26T03:13:59.468Z,4.25
2023-04-26T03:19:03.013Z,4.50
2023-04-26T03:24:07.289Z,4.40
2023-04-26T03:29:12.540Z,4.50
2023-04-26T03:34:16.137Z,3.83
2023-04-26T03:39:19.919Z,4.05
2023-04-26T03:44:25.042Z,4.20
2023-04-26T03:49:28.341Z,4.10
2023-04-26T03:54:32.211Z,4.45
2023-04-26T03:59:37.121Z,4.50
2023-04-26T04:04:41.632Z,4.35
2023-04-26T04:09:45.774Z,4.15
2023-04-26T04:14:51.142Z,4.15
2023-04-26T04:19:55.147Z,4.40
2023-04-26T04:24:59.846Z,4.30
2023-04-26T04:30:04.855Z,4.40
2023-04-26T04:35:09.330Z,4.50
2023-04-26T04:40:13.601Z,4.70
2023-04-26T04:45:21.701Z,4.70
2023-04-26T04:50:26.703Z,4.70
2023-04-26T04:55:30.525Z,4.20
2023-04-26T05:00:38.048Z,4.40
2023-04-26T05:05:52.168Z,4.20
2023-04-26T05:10:56.983Z,4.18
2023-04-26T05:16:01.973Z,3.88
2023-04-26T05:21:06.724Z,3.80
2023-04-26T05:26:14.273Z,3.80
2023-04-26T05:31:39.244Z,3.30
2023-04-26T05:37:18.384Z,3.92
2023-04-26T05:42:21.764Z,3.60
2023-04-26T05:47:27.144Z,3.43
2023-04-26T05:52:31.171Z,3.30
2023-04-26T05:57:34.791Z,3.45
2023-04-26T06:02:39.840Z,3.97
2023-04-26T06:07:47.330Z,3.20
2023-04-26T06:12:50.702Z,3.20
2023-04-26T06:17:56.642Z,3.90
2023-04-26T06:23:00.108Z,3.43
2023-04-26T06:28:03.886Z,2.53
2023-04-26T06:33:09.006Z,3.10
2023-04-26T06:38:13.738Z,2.88
2023-04-26T06:43:17.445Z,2.53
2023-04-26T06:48:37.792Z,2.50
2023-04-26T06:53:41.628Z,1.92
2023-04-26T06:59:00.892Z,2.30
2023-04-26T07:04:10.110Z,2.20
2023-04-26T07:09:14.116Z,3.10
2023-04-26T07:14:17.623Z,2.25
2023-04-26T07:19:22.304Z,1.90
2023-04-26T07:24:26.013Z,1.95
2023-04-26T07:29:29.311Z,1.70
2023-04-26T07:34:34.111Z,1.87
2023-04-26T07:39:37.349Z,1.75
2023-04-26T07:44:40.738Z,1.90
2023-04-26T07:49:47.529Z,2.45
2023-04-26T07:54:51.886Z,1.80
2023-04-26T07:59:55.301Z,1.58
2023-04-26T08:05:00.424Z,1.80
2023-04-26T08:10:04.067Z,1.70
2023-04-26T08:15:08.421Z,1.30
2023-04-26T08:20:14.317Z,1.50
2023-04-26T08:25:17.554Z,1.30
2023-04-26T08:40:28.388Z,1.30
2023-04-26T08:45:34.082Z,1.70
2023-04-26T08:50:41.864Z,1.50
2023-04-26T08:55:49.346Z,1.52
2023-04-26T09:00:53.132Z,1.50
2023-04-26T09:05:58.431Z,1.77
2023-04-26T09:11:01.790Z,1.20
2023-04-26T09:16:05.404Z,1.50
2023-04-26T09:21:10.454Z,1.55
2023-04-26T09:26:21.067Z,1.98
2023-04-26T09:31:43.284Z,2.53
2023-04-26T09:36:56.169Z,1.50
2023-04-26T09:41:59.630Z,2.20
2023-04-26T09:47:05.145Z,4.22
2023-04-26T09:52:09.835Z,3.25
2023-04-26T09:57:13.243Z,1.73
2023-04-26T10:02:19.081Z,1.90
2023-04-26T10:07:25.887Z,1.33
2023-04-26T10:12:29.863Z,1.65
2023-04-26T10:17:33.509Z,1.60
2023-04-26T10:22:45.018Z,1.67
2023-04-26T10:27:53.199Z,1.70
2023-04-26T10:33:23.978Z,1.70
2023-04-26T10:38:28.994Z,1.63
2023-04-26T10:43:32.930Z,1.58
2023-04-26T10:48:36.340Z,1.50
2023-04-26T10:59:33.388Z,1.60
2023-04-26T11:04:54.920Z,3.50
2023-04-26T11:10:01.431Z,1.50
2023-04-26T11:15:07.316Z,1.50
2023-04-26T11:20:17.271Z,1.45
2023-04-26T11:25:20.734Z,1.45
2023-04-26T11:30:25.589Z,1.52
2023-04-26T11:35:32.002Z,1.80
2023-04-26T11:40:36.716Z,1.30
2023-04-26T11:45:41.487Z,1.40
2023-04-26T11:50:45.190Z,1.90
2023-04-26T11:55:48.473Z,1.60
2023-04-26T12:01:00.506Z,1.55
2023-04-26T12:06:04.029Z,1.70
2023-04-26T12:11:07.295Z,1.70
2023-04-26T12:16:25.663Z,1.30
2023-04-26T12:21:30.904Z,1.65
2023-04-26T12:26:44.890Z,1.30
2023-04-26T12:36:53.137Z,1.60
2023-04-26T12:41:56.525Z,1.30
2023-04-26T12:47:01.215Z,1.30
2023-04-26T12:52:04.688Z,1.30
2023-04-26T12:57:08.036Z,1.20
2023-04-26T13:02:12.744Z,1.47
2023-04-26T13:07:16.244Z,1.60
2023-04-26T13:12:19.696Z,1.37
2023-04-26T13:17:25.939Z,1.40
2023-04-26T13:22:29.500Z,1.43
2023-04-26T13:27:32.801Z,1.30
2023-04-26T13:32:37.712Z,1.30
2023-04-26T13:37:41.672Z,1.33
2023-04-26T13:42:44.879Z,1.55
2023-04-26T13:47:49.615Z,1.37
2023-04-26T13:52:53.173Z,1.50
2023-04-26T13:57:56.638Z,1.40
2023-04-26T14:03:01.485Z,1.30
2023-04-26T14:08:04.950Z,1.50
2023-04-26T14:13:08.346Z,1.20
2023-04-26T14:18:13.142Z,1.48
2023-04-26T14:23:16.972Z,1.20
2023-04-26T14:28:20.424Z,1.40
2023-04-26T14:33:25.242Z,3.13
2023-04-26T14:38:28.568Z,1.50
2023-04-26T14:43:32.020Z,1.80
2023-04-26T14:48:36.730Z,1.33
2023-04-26T14:53:40.244Z,1.63
2023-04-26T14:58:43.616Z,1.57
2023-04-26T15:03:48.756Z,1.30
2023-04-26T15:08:52.189Z,1.40
2023-04-26T15:13:55.456Z,1.37
2023-04-26T15:19:00.214Z,1.40
2023-04-26T15:24:03.454Z,1.42
2023-04-26T15:29:06.748Z,1.60
2023-04-26T15:34:11.395Z,1.05
2023-04-26T15:39:14.907Z,1.67
2023-04-26T15:44:18.226Z,1.73
2023-04-26T15:49:24.745Z,1.70
2023-04-26T15:54:28.098Z,1.92
2023-04-26T15:59:33.396Z,1.50
2023-04-26T16:04:38.563Z,1.60
2023-04-26T16:09:42.426Z,1.40
2023-04-26T16:14:45.864Z,1.60
2023-04-26T16:19:50.762Z,1.50
2023-04-26T16:24:55.374Z,1.42
2023-04-26T16:30:00.416Z,1.58
2023-04-26T16:35:06.530Z,1.83
2023-04-26T16:40:11.716Z,1.42
2023-04-26T16:45:16.600Z,5.03
2023-04-26T16:50:21.511Z,1.55
2023-04-26T16:55:25.369Z,1.40
2023-04-26T17:00:29.189Z,1.27
2023-04-26T17:05:38.649Z,1.80
2023-04-26T17:10:42.435Z,1.83
2023-04-26T17:15:46.247Z,1.70
2023-04-26T17:20:53.751Z,1.73
2023-04-26T17:25:57.016Z,2.50
2023-04-26T17:31:00.714Z,3.00
2023-04-26T17:36:06.451Z,3.28
2023-04-26T17:41:09.753Z,4.00
2023-04-26T17:46:13.230Z,4.70
2023-04-26T17:51:18.453Z,4.35
2023-04-26T17:56:21.956Z,6.38
2023-04-26T18:01:25.298Z,2.90
2023-04-26T18:06:29.964Z,2.45
2023-04-26T18:11:33.262Z,2.30
2023-04-26T18:16:36.918Z,2.17
2023-04-26T18:21:41.657Z,2.20
2023-04-26T18:26:46.989Z,1.90
2023-04-26T18:31:52.592Z,2.40
2023-04-26T18:36:58.180Z,5.35
2023-04-26T18:42:02.010Z,6.22
2023-04-26T18:47:06.074Z,4.80
2023-04-26T18:52:12.036Z,5.50
2023-04-26T18:57:18.168Z,5.72
2023-04-26T19:02:21.712Z,7.90
2023-04-26T19:07:28.380Z,3.42
2023-04-26T19:12:33.063Z,2.80
2023-04-26T19:17:36.726Z,2.80
2023-04-26T19:22:44.675Z,5.15
2023-04-26T19:27:48.154Z,7.45
2023-04-26T19:32:52.713Z,5.90
2023-04-26T19:37:58.691Z,4.88
2023-04-26T19:43:03.129Z,6.60
2023-04-26T19:48:06.863Z,3.73
2023-04-26T19:53:13.171Z,2.72
2023-04-26T19:58:17.053Z,3.38
2023-04-26T20:03:20.526Z,2.85
2023-04-26T20:08:25.329Z,3.40
2023-04-26T20:13:29.098Z,3.00
2023-04-26T20:18:33.541Z,3.63
2023-04-26T20:23:38.780Z,3.33
2023-04-26T20:28:43.297Z,3.60
2023-04-26T20:33:47.587Z,3.50
2023-04-26T20:38:53.766Z,4.10
2023-04-26T20:43:57.349Z,3.90
2023-04-26T20:49:00.898Z,3.10
2023-04-26T20:54:06.887Z,3.42
2023-04-26T20:59:11.896Z,3.37
2023-04-26T21:04:16.699Z,3.50
2023-04-26T21:09:22.160Z,3.40
2023-04-26T21:14:25.803Z,3.30
2023-04-26T21:19:29.337Z,3.42
2023-04-26T21:24:34.560Z,4.05
2023-04-26T21:29:38.807Z,4.00
2023-04-26T21:34:42.229Z,3.90
2023-04-26T21:39:46.966Z,3.83
2023-04-26T21:44:50.340Z,3.85
2023-04-26T21:49:53.734Z,3.75
2023-04-26T21:54:58.397Z,5.03
2023-04-26T22:00:01.805Z,5.80
2023-04-26T22:05:05.507Z,4.10
2023-04-26T22:10:11.815Z,6.30
2023-04-26T22:15:15.375Z,4.30
2023-04-26T22:20:18.840Z,4.07
2023-04-26T22:25:24.453Z,3.80
2023-04-26T22:30:27.850Z,4.07
2023-04-26T22:35:31.213Z,4.43
2023-04-26T22:40:36.428Z,4.20
2023-04-26T22:45:39.806Z,4.00
2023-04-26T22:50:43.252Z,4.03
2023-04-26T22:55:48.012Z,3.88
2023-04-26T23:00:51.340Z,3.80
2023-04-26T23:05:54.845Z,3.60
2023-04-26T23:10:59.564Z,3.90
2023-04-26T23:16:04.373Z,3.50
2023-04-26T23:21:07.864Z,3.20
2023-04-26T23:26:12.565Z,3.67
2023-04-26T23:31:16.033Z,3.17
2023-04-26T23:36:19.370Z,3.00
2023-04-26T23:41:24.106Z,3.07
2023-04-26T23:46:27.480Z,3.00
2023-04-26T23:51:32.500Z,3.17
2023-04-26T23:56:37.418Z,3.00
